createdAt,value
2023-04-13T00:05:01.130Z,5.01
2023-04-13T00:15:07.707Z,4.88
2023-04-13T00:25:16.158Z,4.79
2023-04-13T00:35:23.046Z,4.60
2023-04-13T00:45:30.876Z,4.36
2023-04-13T00:55:39.607Z,4.26
2023-04-13T01:05:50.736Z,4.24
2023-04-13T01:16:01.058Z,4.25
2023-04-13T01:26:09.811Z,4.26
2023-04-13T01:36:17.969Z,4.16
2023-04-13T01:46:30.697Z,3.97
2023-04-13T01:56:37.840Z,3.79
2023-04-13T02:06:44.927Z,3.80
2023-04-13T02:16:52.559Z,3.90
2023-04-13T02:26:59.669Z,3.97
2023-04-13T02:37:06.501Z,3.94
2023-04-13T02:47:13.603Z,3.92
2023-04-13T02:57:20.502Z,3.82
2023-04-13T03:07:27.553Z,3.84
2023-04-13T03:17:34.724Z,3.89
2023-04-13T03:27:42.112Z,3.91
2023-04-13T03:37:49.059Z,3.88
2023-04-13T03:47:56.445Z,3.98
2023-04-13T03:58:03.739Z,4.18
2023-04-13T04:08:10.633Z,4.36
2023-04-13T04:18:17.681Z,4.50
2023-04-13T04:28:24.694Z,4.57
2023-04-13T04:38:33.078Z,4.66
2023-04-13T04:48:40.182Z,4.89
2023-04-13T04:58:46.710Z,5.28
2023-04-13T05:08:54.148Z,5.76
2023-04-13T05:19:01.310Z,6.43
2023-04-13T05:29:09.562Z,7.36
2023-04-13T05:39:16.416Z,8.03
2023-04-13T05:49:23.482Z,8.31
2023-04-13T05:59:31.196Z,8.69
2023-04-13T06:09:38.663Z,9.09
2023-04-13T06:19:46.180Z,10.49
2023-04-13T06:29:53.589Z,10.92
2023-04-13T06:39:59.480Z,10.50
2023-04-13T06:50:06.615Z,10.27
2023-04-13T07:00:29.025Z,10.34
2023-04-13T07:10:36.911Z,10.62
2023-04-13T07:20:44.634Z,11.13
2023-04-13T07:30:51.712Z,11.77
2023-04-13T07:40:58.727Z,12.00
2023-04-13T07:51:04.652Z,12.32
2023-04-13T08:01:11.595Z,12.68
2023-04-13T08:11:19.578Z,13.15
2023-04-13T08:21:27.026Z,13.82
2023-04-13T08:31:34.214Z,14.50
2023-04-13T08:41:45.543Z,15.20
2023-04-13T08:51:52.791Z,16.03
2023-04-13T09:02:01.287Z,15.78
2023-04-13T09:12:07.386Z,15.98
2023-04-13T09:22:17.485Z,16.37
2023-04-13T09:32:22.915Z,16.28
2023-04-13T09:42:30.122Z,16.08
2023-04-13T09:52:37.180Z,16.13
2023-04-13T10:02:44.524Z,16.12
2023-04-13T10:12:53.769Z,16.45
2023-04-13T10:23:01.459Z,16.89
2023-04-13T10:33:05.568Z,16.37
2023-04-13T10:43:33.126Z,16.13
2023-04-13T10:53:40.319Z,16.25
2023-04-13T11:04:00.753Z,16.65
2023-04-13T11:14:19.265Z,16.95
2023-04-13T11:24:33.968Z,17.36
2023-04-13T11:34:39.991Z,17.38
2023-04-13T11:44:47.110Z,17.28
2023-04-13T11:54:54.360Z,17.02
2023-04-13T12:05:00.636Z,16.63
2023-04-13T12:15:22.907Z,16.61
2023-04-13T12:25:35.858Z,16.39
2023-04-13T12:35:43.559Z,16.32
2023-04-13T12:55:56.213Z,16.32
2023-04-13T13:06:03.248Z,16.19
2023-04-13T13:16:09.427Z,15.98
2023-04-13T13:36:26.499Z,15.45
2023-04-13T13:46:33.710Z,15.19
2023-04-13T13:56:41.086Z,15.07
2023-04-13T14:06:49.729Z,15.11
2023-04-13T14:16:57.209Z,14.99
2023-04-13T14:27:04.460Z,14.47
2023-04-13T14:37:10.832Z,14.18
2023-04-13T14:47:18.245Z,14.06
2023-04-13T14:57:25.492Z,14.07
2023-04-13T15:07:32.516Z,14.06
2023-04-13T15:17:39.884Z,13.89
2023-04-13T15:27:49.615Z,13.71
2023-04-13T15:37:57.089Z,13.44
2023-04-13T15:48:04.538Z,13.09
2023-04-13T15:58:14.514Z,12.84
2023-04-13T16:08:20.787Z,12.72
2023-04-13T16:18:28.946Z,12.52
2023-04-13T16:28:37.455Z,12.27
2023-04-13T16:38:44.683Z,11.83
2023-04-13T16:48:52.177Z,11.33
2023-04-13T16:58:59.659Z,11.02
2023-04-13T17:09:07.437Z,10.82
2023-04-13T17:19:15.796Z,10.70
2023-04-13T17:29:22.881Z,10.47
2023-04-13T17:39:29.333Z,10.34
2023-04-13T17:49:35.652Z,10.18
2023-04-13T17:59:43.283Z,10.05
2023-04-13T18:09:51.099Z,9.96
2023-04-13T18:19:58.443Z,9.85
2023-04-13T18:30:03.443Z,9.80
2023-04-13T18:40:12.439Z,9.75
2023-04-13T18:50:19.540Z,9.78
2023-04-13T19:00:25.536Z,9.77
2023-04-13T19:10:31.609Z,9.83
2023-04-13T19:20:38.233Z,9.84
2023-04-13T19:30:44.635Z,9.80
2023-04-13T19:40:51.801Z,9.78
2023-04-13T19:50:59.037Z,9.75
2023-04-13T20:01:07.974Z,9.71
2023-04-13T20:11:15.242Z,9.65
2023-04-13T20:21:23.306Z,9.56
2023-04-13T20:31:32.256Z,9.54
2023-04-13T20:41:39.232Z,9.52
2023-04-13T20:51:47.197Z,9.49
2023-04-13T21:01:54.709Z,9.44
2023-04-13T21:12:02.778Z,9.42
2023-04-13T21:22:09.695Z,9.41
2023-04-13T21:32:17.112Z,9.45
2023-04-13T21:42:24.657Z,9.50
2023-04-13T21:52:31.114Z,9.44
2023-04-13T22:02:37.164Z,9.26
2023-04-13T22:12:44.558Z,9.14
2023-04-13T22:22:51.527Z,9.02
2023-04-13T22:32:58.938Z,8.97
2023-04-13T22:43:04.997Z,9.03
2023-04-13T22:53:12.164Z,9.02
2023-04-13T23:03:18.410Z,9.02
2023-04-13T23:13:24.818Z,9.04
2023-04-13T23:23:31.915Z,8.97
2023-04-13T23:33:39.110Z,8.93
2023-04-13T23:43:46.832Z,8.93
2023-04-13T23:53:53.772Z,8.92
